Stephenville, Canada
Current Conditions -  °F | °C
As of 1:00 AM on Monday 24 Nov 2014 (Local Time) from CYJT Reporting Station
Broken Clouds Broken Clouds  
Wind Chill: -6°   Ceiling: 2600
Heat Index: -1°   Visibility: 15mi
Dew Point: -8°   Wind: 9mph
Humidity: 60%   Direction: 300°WNW
Pressure: 30.09"   Gusts: NA
Location:  48.55°N, 58.58°W
Report Text: CYJT 240400Z 30008KT 15SM BKN026 M01/M08 A3009 RMK SC5 SLP190
Loading
Personal Weather Stations






























Interactive Weather Map New forecast layout! Learn more

10-Day Weather Forecast

Advertisements
Track Severe Weather on mobile